sensor_id;sensor_type;location;lat;lon;timestamp;pressure;altitude;pressure_sealevel;temperature;humidity
61136;BME280;47021;51.340;12.432;2024-03-08T00:02:13;100734.13;;;5.51;57.01
61136;BME280;47021;51.340;12.432;2024-03-08T00:04:38;100736.91;;;5.31;57.17
61136;BME280;47021;51.340;12.432;2024-03-08T00:07:07;100731.53;;;5.84;55.81
61136;BME280;47021;51.340;12.432;2024-03-08T00:09:43;100731.19;;;6.06;54.96
61136;BME280;47021;51.340;12.432;2024-03-08T00:12:11;100731.44;;;5.68;55.82
61136;BME280;47021;51.340;12.432;2024-03-08T00:14:36;100737.19;;;5.75;55.20
61136;BME280;47021;51.340;12.432;2024-03-08T00:17:04;100726.59;;;6.11;54.94
61136;BME280;47021;51.340;12.432;2024-03-08T00:19:41;100736.69;;;6.31;53.79
61136;BME280;47021;51.340;12.432;2024-03-08T00:22:20;100730.72;;;6.45;53.41
61136;BME280;47021;51.340;12.432;2024-03-08T00:24:45;100729.78;;;6.16;54.24
61136;BME280;47021;51.340;12.432;2024-03-08T00:27:11;100731.78;;;5.95;54.87
61136;BME280;47021;51.340;12.432;2024-03-08T00:29:37;100725.34;;;5.87;54.99
61136;BME280;47021;51.340;12.432;2024-03-08T00:32:02;100730.16;;;6.24;54.18
61136;BME280;47021;51.340;12.432;2024-03-08T00:34:28;100726.25;;;6.01;54.80
61136;BME280;47021;51.340;12.432;2024-03-08T00:36:53;100717.13;;;5.94;55.00
61136;BME280;47021;51.340;12.432;2024-03-08T00:39:20;100727.34;;;5.97;54.65
61136;BME280;47021;51.340;12.432;2024-03-08T00:41:45;100719.94;;;5.74;55.24
61136;BME280;47021;51.340;12.432;2024-03-08T00:44:11;100723.41;;;6.37;53.67
61136;BME280;47021;51.340;12.432;2024-03-08T00:46:36;100714.06;;;6.49;52.86
61136;BME280;47021;51.340;12.432;2024-03-08T00:49:04;100724.91;;;5.94;54.42
61136;BME280;47021;51.340;12.432;2024-03-08T00:51:29;100724.91;;;6.10;54.09
61136;BME280;47021;51.340;12.432;2024-03-08T00:53:57;100714.88;;;6.04;54.33
61136;BME280;47021;51.340;12.432;2024-03-08T00:56:28;100711.06;;;5.95;54.66
61136;BME280;47021;51.340;12.432;2024-03-08T00:58:53;100715.03;;;6.01;53.85
61136;BME280;47021;51.340;12.432;2024-03-08T01:03:32;100706.00;;;5.28;56.73
61136;BME280;47021;51.340;12.432;2024-03-08T01:08:29;100701.28;;;5.52;56.22
61136;BME280;47021;51.340;12.432;2024-03-08T01:10:55;100697.72;;;5.70;55.25
61136;BME280;47021;51.340;12.432;2024-03-08T01:13:20;100700.34;;;5.86;55.07
61136;BME280;47021;51.340;12.432;2024-03-08T01:15:53;100692.94;;;5.78;55.04
61136;BME280;47021;51.340;12.432;2024-03-08T01:18:18;100695.06;;;5.39;56.39
61136;BME280;47021;51.340;12.432;2024-03-08T01:20:45;100695.44;;;5.64;55.63
61136;BME280;47021;51.340;12.432;2024-03-08T01:23:13;100697.97;;;5.65;55.52
61136;BME280;47021;51.340;12.432;2024-03-08T01:25:40;100690.09;;;5.67;55.35
61136;BME280;47021;51.340;12.432;2024-03-08T01:28:13;100684.25;;;5.63;55.20
61136;BME280;47021;51.340;12.432;2024-03-08T01:30:40;100681.00;;;5.76;55.02
61136;BME280;47021;51.340;12.432;2024-03-08T01:33:19;100677.66;;;5.73;54.94
61136;BME280;47021;51.340;12.432;2024-03-08T01:35:52;100676.25;;;5.68;55.30
61136;BME280;47021;51.340;12.432;2024-03-08T01:38:19;100673.56;;;6.01;54.31
61136;BME280;47021;51.340;12.432;2024-03-08T01:40:45;100671.88;;;5.68;55.46
61136;BME280;47021;51.340;12.432;2024-03-08T01:43:27;100668.38;;;5.69;55.14
61136;BME280;47021;51.340;12.432;2024-03-08T01:46:01;100659.78;;;5.85;54.67
61136;BME280;47021;51.340;12.432;2024-03-08T01:48:40;100662.34;;;5.69;55.35
61136;BME280;47021;51.340;12.432;2024-03-08T01:51:13;100660.72;;;5.99;54.47
61136;BME280;47021;51.340;12.432;2024-03-08T01:53:40;100650.56;;;5.48;55.88
61136;BME280;47021;51.340;12.432;2024-03-08T01:56:07;100651.38;;;5.33;56.83
61136;BME280;47021;51.340;12.432;2024-03-08T02:01:18;100642.25;;;5.90;54.86
61136;BME280;47021;51.340;12.432;2024-03-08T02:03:43;100649.41;;;5.53;55.86
61136;BME280;47021;51.340;12.432;2024-03-08T02:06:11;100650.59;;;5.63;55.31
61136;BME280;47021;51.340;12.432;2024-03-08T02:08:45;100655.72;;;5.48;56.00
61136;BME280;47021;51.340;12.432;2024-03-08T02:11:11;100654.22;;;5.28;56.68
61136;BME280;47021;51.340;12.432;2024-03-08T02:13:42;100643.09;;;5.11;57.41
61136;BME280;47021;51.340;12.432;2024-03-08T02:16:09;100642.06;;;4.80;58.11
61136;BME280;47021;51.340;12.432;2024-03-08T02:18:40;100644.56;;;5.63;55.67
61136;BME280;47021;51.340;12.432;2024-03-08T05:19:57;100573.56;;;4.03;60.56
61136;BME280;47021;51.340;12.432;2024-03-08T18:16:02;99919.69;;;11.33;49.69
61136;BME280;47021;51.340;12.432;2024-03-08T18:18:45;99922.84;;;11.46;49.47
61136;BME280;47021;51.340;12.432;2024-03-08T18:43:32;99902.34;;;11.51;49.43
61136;BME280;47021;51.340;12.432;2024-03-08T19:08:48;99884.59;;;11.55;50.41
61136;BME280;47021;51.340;12.432;2024-03-08T19:11:19;99883.28;;;11.97;49.33
61136;BME280;47021;51.340;12.432;2024-03-08T19:13:52;99881.81;;;11.85;49.71
61136;BME280;47021;51.340;12.432;2024-03-08T19:16:17;99886.13;;;11.57;50.23
61136;BME280;47021;51.340;12.432;2024-03-08T19:18:44;99883.63;;;11.17;50.85
61136;BME280;47021;51.340;12.432;2024-03-08T19:21:17;99882.78;;;11.07;51.58
61136;BME280;47021;51.340;12.432;2024-03-08T19:23:48;99877.03;;;11.42;50.64
61136;BME280;47021;51.340;12.432;2024-03-08T19:28:44;99874.69;;;11.10;51.16
61136;BME280;47021;51.340;12.432;2024-03-08T19:31:15;99885.69;;;11.33;51.36
61136;BME280;47021;51.340;12.432;2024-03-08T19:33:55;99879.66;;;11.23;51.02
61136;BME280;47021;51.340;12.432;2024-03-08T19:36:21;99880.59;;;11.12;51.76
61136;BME280;47021;51.340;12.432;2024-03-08T19:38:47;99882.25;;;11.32;51.33
61136;BME280;47021;51.340;12.432;2024-03-08T19:41:13;99875.16;;;10.66;52.57
61136;BME280;47021;51.340;12.432;2024-03-08T19:43:39;99878.53;;;10.47;53.31
61136;BME280;47021;51.340;12.432;2024-03-08T19:46:05;99873.66;;;10.54;53.37
61136;BME280;47021;51.340;12.432;2024-03-08T19:54:14;99862.94;;;10.17;54.01
61136;BME280;47021;51.340;12.432;2024-03-08T19:56:53;99871.28;;;10.11;54.80
61136;BME280;47021;51.340;12.432;2024-03-08T19:59:29;99858.41;;;10.19;54.89
61136;BME280;47021;51.340;12.432;2024-03-08T20:43:37;99834.41;;;9.74;55.71
61136;BME280;47021;51.340;12.432;2024-03-08T20:51:46;99840.38;;;9.86;55.47
61136;BME280;47021;51.340;12.432;2024-03-08T20:54:27;99836.69;;;9.68;55.34
61136;BME280;47021;51.340;12.432;2024-03-08T20:56:59;99826.50;;;9.85;55.42
61136;BME280;47021;51.340;12.432;2024-03-08T21:04:59;99829.31;;;10.24;54.20
61136;BME280;47021;51.340;12.432;2024-03-08T21:10:21;99829.09;;;9.85;55.17
61136;BME280;47021;51.340;12.432;2024-03-08T21:40:36;99806.38;;;9.97;54.76
61136;BME280;47021;51.340;12.432;2024-03-08T21:43:25;99803.22;;;9.22;57.26
61136;BME280;47021;51.340;12.432;2024-03-08T21:51:31;99801.63;;;9.10;57.47
61136;BME280;47021;51.340;12.432;2024-03-08T21:54:04;99795.38;;;9.01;57.20
61136;BME280;47021;51.340;12.432;2024-03-08T21:56:36;99790.75;;;8.41;59.13
61136;BME280;47021;51.340;12.432;2024-03-08T21:59:02;99779.44;;;8.31;60.07
61136;BME280;47021;51.340;12.432;2024-03-08T22:01:42;99780.16;;;8.11;60.24
61136;BME280;47021;51.340;12.432;2024-03-08T22:09:50;99770.16;;;8.49;58.99
